Time;durP1;ratioP1;P1;durP2;ratioP2;P2;SDS_P1;SDS_P2;PMS_P1;PMS_P2;Temp;Humidity;BMP_temperature;BMP_pressure;BME280_temperature;BME280_humidity;BME280_pressure;Samples;Min_cycle;Max_cycle;Signal;HPM_P1;HPM_P2
2022/05/02 00:02:15;;;;;;;;;;;;;;;14.35;60.00;99777.16;4427797;32;20031;-93
2022/05/02 00:04:40;;;;;;;;;;;;;;;14.39;60.00;99774.31;4427456;32;19978;-92
2022/05/02 00:07:05;;;;;;;;;;;;;;;14.36;59.99;99777.09;4427063;32;19985;-92
2022/05/02 00:09:31;;;;;;;;;;;;;;;14.49;60.00;99777.41;4426924;32;21304;-92
2022/05/02 00:11:56;;;;;;;;;;;;;;;14.61;60.00;99782.03;4427448;32;19990;-93
2022/05/02 00:14:21;;;;;;;;;;;;;;;14.60;60.00;99774.25;4426978;32;19974;-93
2022/05/02 00:16:46;;;;;;;;;;;;;;;14.42;60.00;99757.59;4426238;32;20586;-92
2022/05/02 00:19:12;;;;;;;;;;;;;;;14.12;59.98;99766.00;4426856;32;20377;-93
2022/05/02 00:21:37;;;;;;;;;;;;;;;14.28;59.99;99766.13;4439620;32;19977;-93
2022/05/02 00:24:02;;;;;;;;;;;;;;;14.16;59.98;99768.47;4426436;32;20317;-91
2022/05/02 00:26:28;;;;;;;;;;;;;;;14.20;59.98;99783.12;4426469;32;19993;-93
2022/05/02 00:28:53;;;;;;;;;;;;;;;14.20;59.98;99776.12;4428916;32;20012;-91
2022/05/02 00:31:18;;;;;;;;;;;;;;;14.16;59.98;99773.69;4428984;32;19973;-90
2022/05/02 00:33:43;;;;;;;;;;;;;;;14.21;59.98;99772.59;4428980;32;19973;-91
2022/05/02 00:36:08;;;;;;;;;;;;;;;14.29;59.99;99770.44;4429297;32;20025;-92
2022/05/02 00:38:34;;;;;;;;;;;;;;;14.24;59.99;99772.44;4428896;32;20014;-92
2022/05/02 00:40:59;;;;;;;;;;;;;;;14.12;59.97;99770.38;4429577;32;19989;-90
2022/05/02 00:43:24;;;;;;;;;;;;;;;14.17;59.99;99770.16;4431464;32;20001;-93
2022/05/02 00:45:49;;;;;;;;;;;;;;;14.10;59.98;99770.44;4432087;32;19978;-92
2022/05/02 00:48:15;;;;;;;;;;;;;;;14.06;59.98;99774.13;4432824;32;19997;-95
2022/05/02 00:50:41;;;;;;;;;;;;;;;14.18;59.98;99779.69;4459488;32;20314;-94
2022/05/02 00:53:07;;;;;;;;;;;;;;;14.12;59.98;99776.47;4443920;32;19985;-94
2022/05/02 00:55:32;;;;;;;;;;;;;;;14.24;59.98;99779.44;4443083;32;19993;-94
2022/05/02 00:57:59;;;;;;;;;;;;;;;14.30;59.98;99780.00;4428485;32;20247;-91
2022/05/02 01:00:24;;;;;;;;;;;;;;;14.17;59.99;99778.00;4428744;32;20338;-92
2022/05/02 01:02:50;;;;;;;;;;;;;;;13.92;59.96;99786.97;4428729;32;20003;-91
2022/05/02 01:05:15;;;;;;;;;;;;;;;14.13;59.98;99777.31;4428338;32;20327;-91
2022/05/02 01:07:40;;;;;;;;;;;;;;;14.08;59.97;99781.91;4428528;32;19989;-91
2022/05/02 01:10:05;;;;;;;;;;;;;;;13.90;59.97;99782.72;4428420;32;19977;-91
2022/05/02 01:12:31;;;;;;;;;;;;;;;13.95;59.97;99778.13;4428640;32;20001;-90
2022/05/02 01:14:56;;;;;;;;;;;;;;;14.03;59.97;99776.03;4441425;32;20296;-91
2022/05/02 01:17:22;;;;;;;;;;;;;;;14.09;59.98;99776.59;4428335;32;20004;-88
2022/05/02 01:19:47;;;;;;;;;;;;;;;14.07;59.97;99777.59;4441072;32;19977;-89
2022/05/02 01:22:12;;;;;;;;;;;;;;;13.98;59.96;99780.66;4441345;32;19973;-93
2022/05/02 01:24:41;;;;;;;;;;;;;;;13.92;59.96;99779.13;4428223;32;20003;-92
2022/05/02 01:27:07;;;;;;;;;;;;;;;13.74;59.95;99783.44;4425938;32;19993;-92
2022/05/02 01:29:33;;;;;;;;;;;;;;;13.73;59.95;99781.75;4425084;32;20317;-91
2022/05/02 01:31:58;;;;;;;;;;;;;;;13.65;59.95;99778.59;4427315;32;20003;-92
2022/05/02 01:34:24;;;;;;;;;;;;;;;13.71;59.95;99787.94;4439841;32;20000;-93
2022/05/02 01:36:49;;;;;;;;;;;;;;;13.83;59.96;99780.41;4426643;32;20041;-92
2022/05/02 01:39:14;;;;;;;;;;;;;;;14.01;59.97;99780.50;4426669;32;20341;-93
2022/05/02 01:41:40;;;;;;;;;;;;;;;13.90;59.96;99785.34;4426459;32;20002;-91
2022/05/02 01:44:05;;;;;;;;;;;;;;;13.95;59.97;99781.59;4426139;32;20254;-93
2022/05/02 01:46:30;;;;;;;;;;;;;;;14.00;59.96;99778.81;4426159;32;19981;-92
2022/05/02 01:48:56;;;;;;;;;;;;;;;13.85;59.96;99787.34;4426766;32;20021;-93
2022/05/02 01:51:21;;;;;;;;;;;;;;;13.96;59.97;99783.34;4438770;32;20038;-89
2022/05/02 01:53:46;;;;;;;;;;;;;;;13.91;59.96;99806.22;4425707;32;20035;-90
2022/05/02 01:56:11;;;;;;;;;;;;;;;13.93;59.96;99799.16;4425617;32;19993;-90
2022/05/02 01:58:37;;;;;;;;;;;;;;;13.89;59.96;99794.97;4438627;32;19978;-91
2022/05/02 02:01:02;;;;;;;;;;;;;;;13.85;59.96;99788.19;4425507;32;20021;-91
2022/05/02 02:03:27;;;;;;;;;;;;;;;13.81;59.95;99784.00;4425939;32;20330;-92
2022/05/02 02:05:52;;;;;;;;;;;;;;;13.71;59.95;99787.94;4425705;32;19982;-91
2022/05/02 02:08:21;;;;;;;;;;;;;;;13.77;59.95;99785.06;4437879;32;26549;-91
2022/05/02 02:10:47;;;;;;;;;;;;;;;14.17;59.97;99789.31;4425686;32;20274;-91
2022/05/02 02:13:12;;;;;;;;;;;;;;;14.10;59.98;99790.53;4438364;32;19995;-90
2022/05/02 02:15:37;;;;;;;;;;;;;;;14.11;59.97;99787.84;4425686;32;20049;-90
2022/05/02 02:18:03;;;;;;;;;;;;;;;13.97;59.97;99787.66;4425685;32;19996;-91
2022/05/02 02:20:28;;;;;;;;;;;;;;;13.84;59.96;99791.72;4425241;32;20702;-91
2022/05/02 02:22:54;;;;;;;;;;;;;;;13.86;59.95;99786.41;4438224;32;20004;-91
2022/05/02 02:25:20;;;;;;;;;;;;;;;14.12;59.97;99786.06;4438125;32;20048;-89
2022/05/02 02:27:45;;;;;;;;;;;;;;;14.23;59.98;99793.47;4424959;32;19997;-89
2022/05/02 02:30:11;;;;;;;;;;;;;;;14.18;59.98;99783.16;4438120;32;20015;-90
2022/05/02 02:32:36;;;;;;;;;;;;;;;14.34;59.99;99791.16;4437893;32;20068;-89
2022/05/02 02:35:01;;;;;;;;;;;;;;;14.29;59.98;99783.53;4424833;32;20274;-90
2022/05/02 02:37:26;;;;;;;;;;;;;;;14.35;59.98;99783.25;4438054;32;19969;-93
2022/05/02 02:39:51;;;;;;;;;;;;;;;14.26;59.99;99775.84;4440522;32;19980;-91
2022/05/02 02:42:17;;;;;;;;;;;;;;;14.13;59.97;99791.25;4430088;32;19985;-92
2022/05/02 02:44:42;;;;;;;;;;;;;;;14.29;59.98;99788.78;4430332;32;20298;-90
2022/05/02 02:47:07;;;;;;;;;;;;;;;14.38;59.98;99785.72;4430449;32;19974;-90
2022/05/02 02:49:32;;;;;;;;;;;;;;;14.46;59.99;99776.69;4430098;32;20032;-90
2022/05/02 02:51:58;;;;;;;;;;;;;;;14.38;59.98;99783.09;4429981;32;20023;-91
2022/05/02 02:54:23;;;;;;;;;;;;;;;14.14;59.97;99789.47;4430319;32;19989;-89
2022/05/02 02:56:48;;;;;;;;;;;;;;;14.17;59.97;99785.88;4442495;32;20334;-89
2022/05/02 02:59:13;;;;;;;;;;;;;;;14.28;59.98;99784.47;4442187;32;25446;-89
2022/05/02 03:01:39;;;;;;;;;;;;;;;14.46;59.99;99780.16;4430315;32;20031;-91
2022/05/02 03:06:01;;;;;;;;;;;;;;;14.30;59.98;99782.63;4430290;32;19994;-91
2022/05/02 03:06:49;;;;;;;;;;;;;;;14.37;59.98;99785.78;4443120;32;19993;-92
2022/05/02 03:09:15;;;;;;;;;;;;;;;14.42;59.99;99789.88;4430120;32;20028;-91
2022/05/02 03:11:40;;;;;;;;;;;;;;;14.54;59.99;99777.19;4429668;32;20020;-91
2022/05/02 03:14:05;;;;;;;;;;;;;;;14.45;59.99;99773.25;4429470;32;24203;-91
2022/05/02 03:16:30;;;;;;;;;;;;;;;14.47;60.00;99776.62;4430367;32;19986;-92
2022/05/02 03:18:55;;;;;;;;;;;;;;;14.41;60.00;99771.63;4430261;32;20295;-90
2022/05/02 03:21:21;;;;;;;;;;;;;;;14.40;59.99;99773.41;4429733;32;20045;-92
2022/05/02 03:23:46;;;;;;;;;;;;;;;14.51;59.99;99772.09;4431278;32;19989;-91
2022/05/02 03:26:11;;;;;;;;;;;;;;;14.54;59.99;99774.56;4437517;32;20039;-94
2022/05/02 03:28:36;;;;;;;;;;;;;;;14.71;60.00;99771.97;4438463;32;19978;-95
2022/05/02 03:31:02;;;;;;;;;;;;;;;14.71;60.01;99774.59;4437083;32;20005;-96
2022/05/02 03:33:28;;;;;;;;;;;;;;;14.57;60.00;99771.78;4430881;32;20009;-91
2022/05/02 03:35:53;;;;;;;;;;;;;;;14.58;60.00;99771.72;4443575;32;19973;-96
2022/05/02 03:38:18;;;;;;;;;;;;;;;14.62;59.99;99768.00;4432525;32;20013;-96
2022/05/02 03:40:43;;;;;;;;;;;;;;;14.76;60.00;99767.38;4431586;32;20235;-95
2022/05/02 03:43:09;;;;;;;;;;;;;;;14.70;60.00;99765.03;4432335;32;20077;-95
2022/05/02 03:45:34;;;;;;;;;;;;;;;14.54;59.99;99767.53;4431999;32;19977;-96
2022/05/02 03:48:00;;;;;;;;;;;;;;;14.56;60.00;99765.69;4432036;32;19992;-96
2022/05/02 03:50:25;;;;;;;;;;;;;;;14.63;60.00;99756.63;4430901;32;20251;-96
2022/05/02 03:52:50;;;;;;;;;;;;;;;14.76;60.00;99759.50;4428489;32;20001;-95
2022/05/02 03:55:15;;;;;;;;;;;;;;;14.68;60.00;99756.41;4428677;32;20000;-96
2022/05/02 03:57:41;;;;;;;;;;;;;;;14.64;60.01;99758.31;4428909;32;20004;-96
2022/05/02 04:00:07;;;;;;;;;;;;;;;14.52;59.99;99755.44;4441613;32;19985;-96
2022/05/02 04:02:32;;;;;;;;;;;;;;;14.70;60.00;99759.81;4427605;32;19997;-93
2022/05/02 04:04:58;;;;;;;;;;;;;;;14.67;60.00;99752.94;4440942;32;20027;-95
2022/05/02 04:07:23;;;;;;;;;;;;;;;14.68;60.00;99761.66;4428295;32;20009;-94
2022/05/02 04:09:48;;;;;;;;;;;;;;;14.78;60.01;99757.66;4428346;32;20024;-95
2022/05/02 04:12:14;;;;;;;;;;;;;;;14.90;60.01;99754.41;4427163;32;20029;-94
2022/05/02 04:14:39;;;;;;;;;;;;;;;15.03;60.02;99754.66;4427616;32;20240;-92
2022/05/02 04:17:04;;;;;;;;;;;;;;;15.12;60.03;99756.81;4440780;32;20019;-94
2022/05/02 04:19:30;;;;;;;;;;;;;;;15.25;60.04;99751.81;4428211;32;19993;-94
2022/05/02 04:21:55;;;;;;;;;;;;;;;15.09;60.02;99750.88;4428485;32;20314;-94
2022/05/02 04:24:20;;;;;;;;;;;;;;;15.33;60.04;99757.50;4428356;32;20008;-94
2022/05/02 04:26:45;;;;;;;;;;;;;;;15.32;60.04;99754.03;4430180;32;19989;-93
2022/05/02 04:29:11;;;;;;;;;;;;;;;15.37;60.03;99756.41;4431020;32;19985;-95
2022/05/02 04:31:36;;;;;;;;;;;;;;;15.37;60.04;99761.66;4444047;32;19993;-95
2022/05/02 04:34:01;;;;;;;;;;;;;;;15.55;60.05;99760.69;4444163;32;20067;-95
2022/05/02 04:36:26;;;;;;;;;;;;;;;15.63;60.06;99762.97;4432239;32;20695;-95
2022/05/02 04:38:52;;;;;;;;;;;;;;;15.72;60.06;99762.47;4444078;32;20069;-95
2022/05/02 04:41:18;;;;;;;;;;;;;;;15.86;60.07;99761.75;4433642;32;20009;-94
2022/05/02 04:43:43;;;;;;;;;;;;;;;15.91;60.06;99757.09;4431382;32;19985;-96
2022/05/02 04:46:08;;;;;;;;;;;;;;;16.00;60.08;99761.84;4431621;32;20001;-96
2022/05/02 04:48:34;;;;;;;;;;;;;;;16.19;60.09;99759.94;4431549;32;20310;-96
2022/05/02 04:50:59;;;;;;;;;;;;;;;16.42;60.09;99760.44;4431369;32;20016;-96
2022/05/02 04:53:24;;;;;;;;;;;;;;;16.46;60.11;99762.81;4431646;32;19988;-96
2022/05/02 04:55:49;;;;;;;;;;;;;;;16.63;60.11;99763.66;4431605;32;19992;-96
2022/05/02 04:58:15;;;;;;;;;;;;;;;16.73;60.11;99772.72;4431361;32;19993;-96
2022/05/02 05:00:40;;;;;;;;;;;;;;;16.82;60.11;99769.59;4431564;32;20008;-96
2022/05/02 05:03:06;;;;;;;;;;;;;;;16.85;60.12;99769.41;4431256;32;19977;-96
2022/05/02 05:05:31;;;;;;;;;;;;;;;17.01;60.13;99783.34;4431081;32;19984;-96
2022/05/02 05:07:56;;;;;;;;;;;;;;;17.02;60.13;99776.28;4431619;32;19985;-96
2022/05/02 05:10:22;;;;;;;;;;;;;;;17.22;60.13;99775.13;4431453;32;20007;-96
2022/05/02 05:12:55;;;;;;;;;;;;;;;17.31;60.15;99778.09;4431515;32;20003;-96
2022/05/02 05:18:26;;;;;;;;;;;;;;;17.48;60.15;99777.91;4458696;32;19996;-96
2022/05/02 05:21:04;;;;;;;;;;;;;;;17.54;60.16;99773.25;4444738;32;19997;-96
2022/05/02 05:23:41;;;;;;;;;;;;;;;17.54;60.16;99770.63;4445017;32;19972;-96
2022/05/02 05:26:11;;;;;;;;;;;;;;;17.66;60.16;99785.66;4432527;32;19977;-96
2022/05/02 05:28:56;;;;;;;;;;;;;;;17.78;60.17;99772.63;4432171;32;20043;-96
2022/05/02 05:31:26;;;;;;;;;;;;;;;17.93;60.18;99778.72;4432167;32;20038;-96
2022/05/02 05:34:06;;;;;;;;;;;;;;;17.96;60.18;99782.94;4444845;32;20757;-96
2022/05/02 05:36:51;;;;;;;;;;;;;;;18.00;60.17;99776.56;4432348;32;20703;-96
2022/05/02 05:39:39;;;;;;;;;;;;;;;18.14;60.18;99779.19;4444503;32;20012;-96
2022/05/02 05:48:28;;;;;;;;;;;;;;;18.34;60.19;99776.12;4398698;32;20560;-94
2022/05/02 05:51:22;;;;;;;;;;;;;;;18.55;60.21;99770.44;4442699;32;20682;-96
2022/05/02 05:54:06;;;;;;;;;;;;;;;18.52;60.20;99763.59;4426673;32;20047;-93
2022/05/02 05:56:41;;;;;;;;;;;;;;;18.67;60.21;99769.66;4442827;32;19988;-96
2022/05/02 05:59:36;;;;;;;;;;;;;;;18.69;60.22;99771.28;4442618;32;19963;-95
2022/05/02 06:02:13;;;;;;;;;;;;;;;18.66;60.21;99774.09;4375103;32;20006;-95
2022/05/02 06:04:38;;;;;;;;;;;;;;;18.83;60.22;99774.78;4430438;32;20683;-95
2022/05/02 06:07:04;;;;;;;;;;;;;;;18.85;60.23;99767.63;4436978;32;19973;-94
2022/05/02 06:09:30;;;;;;;;;;;;;;;18.88;60.22;99775.34;4437456;32;20059;-94
2022/05/02 06:11:57;;;;;;;;;;;;;;;18.82;60.22;99773.09;4436014;32;19995;-95
2022/05/02 06:14:23;;;;;;;;;;;;;;;19.00;60.24;99767.47;4430614;32;20010;-95
2022/05/02 06:19:32;;;;;;;;;;;;;;;19.03;60.24;99771.69;4444781;32;20004;-95
2022/05/02 06:21:57;;;;;;;;;;;;;;;19.04;60.23;99768.09;4429625;32;20001;-94
2022/05/02 06:24:26;;;;;;;;;;;;;;;19.17;60.24;99766.34;4429375;32;20281;-96
2022/05/02 06:26:51;;;;;;;;;;;;;;;19.21;60.24;99772.25;4442205;32;20000;-95
2022/05/02 06:29:16;;;;;;;;;;;;;;;19.31;60.25;99768.03;4429243;32;20008;-96
2022/05/02 06:31:45;;;;;;;;;;;;;;;19.25;60.25;99779.03;4429212;32;19997;-94
2022/05/02 06:34:10;;;;;;;;;;;;;;;19.32;60.25;99773.22;4429763;32;20000;-95
2022/05/02 06:36:45;;;;;;;;;;;;;;;19.36;60.25;99773.84;4429287;32;20012;-94
2022/05/02 06:39:14;;;;;;;;;;;;;;;19.50;60.26;99767.66;4429494;32;20040;-96
2022/05/02 06:41:46;;;;;;;;;;;;;;;19.54;60.27;99770.00;4429071;32;19980;-96
2022/05/02 06:44:31;;;;;;;;;;;;;;;19.69;60.26;99773.37;4442164;32;19953;-95
2022/05/02 06:47:06;;;;;;;;;;;;;;;19.75;60.27;99774.75;4441374;32;20008;-95
2022/05/02 06:49:31;;;;;;;;;;;;;;;19.56;60.27;99785.72;4442103;32;20030;-94
2022/05/02 06:51:58;;;;;;;;;;;;;;;19.62;60.27;99790.59;4429458;32;19997;-95
2022/05/02 06:54:26;;;;;;;;;;;;;;;19.74;60.27;99789.75;4429381;32;20005;-94
2022/05/02 06:56:52;;;;;;;;;;;;;;;19.89;60.28;99783.41;4429148;32;19976;-94
2022/05/02 06:59:23;;;;;;;;;;;;;;;19.77;60.28;99792.19;4441597;32;19995;-95
2022/05/02 07:01:58;;;;;;;;;;;;;;;20.01;60.30;99799.34;4441872;32;20374;-95
2022/05/02 07:04:33;;;;;;;;;;;;;;;19.99;60.29;99795.97;4428987;32;19985;-95
2022/05/02 07:07:02;;;;;;;;;;;;;;;20.11;60.30;99795.09;4441746;32;20029;-95
2022/05/02 07:09:47;;;;;;;;;;;;;;;20.17;60.30;99792.03;4428960;32;19953;-94
2022/05/02 07:12:17;;;;;;;;;;;;;;;20.14;60.29;99797.53;4427029;32;19989;-95
2022/05/02 07:15:01;;;;;;;;;;;;;;;20.03;60.29;99792.16;4428714;32;19997;-95
2022/05/02 07:17:38;;;;;;;;;;;;;;;19.99;60.29;99795.97;4441474;32;20033;-96
2022/05/02 07:20:07;;;;;;;;;;;;;;;20.14;60.29;99792.25;4441451;32;20588;-95
2022/05/02 07:22:33;;;;;;;;;;;;;;;19.99;60.28;99793.31;4428798;32;19993;-95
2022/05/02 07:25:02;;;;;;;;;;;;;;;20.02;60.29;99799.22;4428649;32;19993;-95
2022/05/02 07:27:37;;;;;;;;;;;;;;;20.13;60.29;99794.06;4430025;32;19981;-95
2022/05/02 07:30:02;;;;;;;;;;;;;;;20.16;60.30;99793.00;4430730;32;20009;-95
2022/05/02 07:32:27;;;;;;;;;;;;;;;20.40;60.31;99796.56;4430492;32;20062;-95
2022/05/02 07:34:55;;;;;;;;;;;;;;;20.51;60.31;99795.78;4430963;32;20367;-96
2022/05/02 07:37:22;;;;;;;;;;;;;;;20.75;60.33;99795.78;4443966;32;20361;-95
2022/05/02 07:39:48;;;;;;;;;;;;;;;20.85;60.34;99788.88;4430642;32;19993;-95
2022/05/02 07:42:13;;;;;;;;;;;;;;;21.06;60.35;99789.94;4430731;32;20046;-95
2022/05/02 07:44:38;;;;;;;;;;;;;;;21.32;60.36;99781.88;4430517;32;19981;-94
2022/05/02 07:47:04;;;;;;;;;;;;;;;21.41;60.37;99774.06;4430553;32;19988;-95
2022/05/02 07:49:30;;;;;;;;;;;;;;;21.49;60.37;99777.91;4431108;32;20018;-94
2022/05/02 07:51:55;;;;;;;;;;;;;;;21.55;60.37;99773.00;4443504;32;19997;-93
2022/05/02 07:54:21;;;;;;;;;;;;;;;21.76;60.38;99773.13;4430595;32;20009;-95
2022/05/02 07:56:47;;;;;;;;;;;;;;;21.88;60.39;99774.84;4429883;32;19997;-95
2022/05/02 07:59:13;;;;;;;;;;;;;;;21.71;60.38;99773.50;4430423;32;19969;-95
2022/05/02 08:01:39;;;;;;;;;;;;;;;21.84;60.38;99775.19;4430634;32;19985;-95
2022/05/02 08:04:05;;;;;;;;;;;;;;;21.89;60.39;99779.16;4443344;32;20012;-95
2022/05/02 08:06:45;;;;;;;;;;;;;;;21.95;60.39;99780.50;4430220;32;19980;-95
2022/05/02 08:09:14;;;;;;;;;;;;;;;22.22;60.41;99780.13;4443169;32;19993;-95
2022/05/02 08:11:58;;;;;;;;;;;;;;;22.51;60.43;99783.97;4443134;32;19993;-94
2022/05/02 08:14:44;;;;;;;;;;;;;;;22.68;60.43;99780.78;4443096;32;20412;-95
2022/05/02 08:17:28;;;;;;;;;;;;;;;22.86;60.44;99774.97;4404281;32;19972;-95
2022/05/02 08:20:12;;;;;;;;;;;;;;;23.08;60.45;99766.06;4443195;32;19977;-96
2022/05/02 08:28:35;;;;;;;;;;;;;;;23.56;60.48;99766.41;4456880;32;20056;-94
2022/05/02 08:31:08;;;;;;;;;;;;;;;23.70;60.48;99755.44;4429900;32;20008;-95
2022/05/02 08:33:34;;;;;;;;;;;;;;;23.94;60.49;99760.47;4430260;32;19990;-94
2022/05/02 08:36:08;;;;;;;;;;;;;;;24.10;60.50;99752.78;4429971;32;20028;-94
2022/05/02 08:38:37;;;;;;;;;;;;;;;24.23;60.51;99760.56;4429769;32;19953;-95
2022/05/02 08:41:11;;;;;;;;;;;;;;;24.38;60.53;99756.56;4442814;32;19988;-94
2022/05/02 08:43:52;;;;;;;;;;;;;;;24.58;60.54;99760.06;4458663;32;19949;-95
2022/05/02 08:46:20;;;;;;;;;;;;;;;24.58;60.54;99745.94;4436279;32;19966;-95
2022/05/02 08:48:45;;;;;;;;;;;;;;;24.82;60.54;99749.03;4447815;32;20048;-95
2022/05/02 08:51:10;;;;;;;;;;;;;;;24.98;60.56;99746.66;4444999;32;19985;-95
2022/05/02 08:53:51;;;;;;;;;;;;;;;25.06;60.56;99740.66;4442735;32;20005;-96
2022/05/02 08:56:35;;;;;;;;;;;;;;;24.97;60.55;99744.13;4429722;32;20012;-96
2022/05/02 08:59:12;;;;;;;;;;;;;;;24.99;60.55;99736.88;4442559;32;19965;-94
2022/05/02 09:01:37;;;;;;;;;;;;;;;25.14;60.56;99737.28;4429796;32;19993;-96
2022/05/02 09:04:22;;;;;;;;;;;;;;;25.25;60.56;99734.47;4442535;32;20002;-95
2022/05/02 09:06:59;;;;;;;;;;;;;;;25.24;60.57;99736.28;4442937;32;20016;-95
2022/05/02 09:09:27;;;;;;;;;;;;;;;25.03;60.55;99738.25;4442469;32;20035;-95
2022/05/02 09:11:59;;;;;;;;;;;;;;;24.75;60.54;99746.09;4442705;32;19973;-95
2022/05/02 09:14:43;;;;;;;;;;;;;;;24.41;60.52;99745.66;4442483;32;19989;-95
2022/05/02 09:17:27;;;;;;;;;;;;;;;24.27;60.52;99743.34;4456784;32;19988;-94
2022/05/02 09:19:58;;;;;;;;;;;;;;;24.27;60.51;99742.50;4442501;32;19992;-96
2022/05/02 09:22:30;;;;;;;;;;;;;;;24.31;60.52;99747.44;4442648;32;19977;-95
2022/05/02 09:24:55;;;;;;;;;;;;;;;24.01;60.50;99742.97;4442390;32;20616;-95
2022/05/02 09:27:21;;;;;;;;;;;;;;;23.67;60.49;99738.94;4443279;32;20026;-95
2022/05/02 09:29:49;;;;;;;;;;;;;;;23.57;60.49;99733.56;4443355;32;19977;-96
2022/05/02 09:32:18;;;;;;;;;;;;;;;23.62;60.48;99735.81;4442517;32;20026;-95
2022/05/02 09:34:54;;;;;;;;;;;;;;;23.63;60.48;99737.50;4431402;32;20369;-94
2022/05/02 09:37:38;;;;;;;;;;;;;;;23.53;60.48;99740.91;4430487;32;20068;-94
2022/05/02 09:40:12;;;;;;;;;;;;;;;23.16;60.46;99739.69;4429707;32;19945;-94
2022/05/02 09:42:44;;;;;;;;;;;;;;;23.01;60.44;99741.00;4430003;32;20265;-95
2022/05/02 09:51:21;;;;;;;;;;;;;;;23.16;60.46;99735.22;4456242;32;20003;-95
2022/05/02 09:53:46;;;;;;;;;;;;;;;23.31;60.46;99743.72;4442308;32;19999;-95
2022/05/02 09:59:09;;;;;;;;;;;;;;;23.62;60.48;99735.81;4444453;32;20037;-96
2022/05/02 10:01:35;;;;;;;;;;;;;;;23.71;60.49;99732.38;4442257;32;19995;-94
2022/05/02 10:04:12;;;;;;;;;;;;;;;23.95;60.50;99724.06;4429174;32;19982;-95
2022/05/02 10:06:43;;;;;;;;;;;;;;;24.08;60.51;99722.84;4442088;32;20083;-95
2022/05/02 10:09:15;;;;;;;;;;;;;;;24.27;60.51;99721.22;4442116;32;20039;-95
2022/05/02 10:11:43;;;;;;;;;;;;;;;24.56;60.53;99722.12;4441875;32;19982;-95
2022/05/02 10:14:09;;;;;;;;;;;;;;;24.49;60.52;99713.03;4429217;32;19976;-94
2022/05/02 10:16:40;;;;;;;;;;;;;;;24.45;60.53;99703.63;4441822;32;20334;-94
2022/05/02 10:19:25;;;;;;;;;;;;;;;24.64;60.53;99710.81;4441984;32;20613;-95
2022/05/02 10:22:17;;;;;;;;;;;;;;;24.85;60.55;99705.34;4428992;32;19982;-95
2022/05/02 10:25:20;;;;;;;;;;;;;;;25.11;60.56;99690.47;4407386;32;19989;-94
2022/05/02 10:27:58;;;;;;;;;;;;;;;25.19;60.56;99689.75;4364960;32;19977;-94
2022/05/02 10:30:23;;;;;;;;;;;;;;;25.14;60.57;99689.34;4377027;32;20668;-95
2022/05/02 10:32:53;;;;;;;;;;;;;;;25.29;60.58;99680.72;4390513;32;19988;-95
2022/05/02 10:35:19;;;;;;;;;;;;;;;25.38;60.58;99673.72;4426300;32;19977;-94
2022/05/02 10:37:53;;;;;;;;;;;;;;;25.31;60.58;99669.94;4426138;32;19986;-95
2022/05/02 10:40:20;;;;;;;;;;;;;;;25.55;60.59;99675.63;4439092;32;20043;-95
2022/05/02 10:42:46;;;;;;;;;;;;;;;25.77;60.60;99668.25;4438789;32;20624;-95
2022/05/02 10:45:11;;;;;;;;;;;;;;;25.69;60.59;99669.81;4425789;32;19988;-96
2022/05/02 10:47:41;;;;;;;;;;;;;;;25.69;60.59;99672.50;4425779;32;20294;-92
2022/05/02 10:50:13;;;;;;;;;;;;;;;25.95;60.61;99667.31;4426242;32;20039;-92
2022/05/02 10:52:53;;;;;;;;;;;;;;;26.11;60.61;99669.31;4439311;32;20026;-92
2022/05/02 10:55:19;;;;;;;;;;;;;;;26.18;60.62;99672.22;4425770;32;20316;-91
2022/05/02 10:57:51;;;;;;;;;;;;;;;26.27;60.62;99674.00;4425795;32;20002;-92
2022/05/02 11:00:17;;;;;;;;;;;;;;;26.26;60.62;99665.16;4426132;32;20051;-93
2022/05/02 11:02:55;;;;;;;;;;;;;;;26.40;60.63;99666.47;4427495;32;20273;-92
2022/05/02 11:05:24;;;;;;;;;;;;;;;26.41;60.63;99662.81;4440406;32;19990;-93
2022/05/02 11:08:12;;;;;;;;;;;;;;;26.56;60.64;99668.47;4427926;32;20008;-93
2022/05/02 11:10:47;;;;;;;;;;;;;;;26.61;60.64;99661.66;4427532;32;20009;-93
2022/05/02 11:13:23;;;;;;;;;;;;;;;26.61;60.64;99655.50;4427789;32;19978;-94
2022/05/02 11:16:04;;;;;;;;;;;;;;;26.74;60.65;99660.44;4429189;32;19996;-92
2022/05/02 11:21:22;;;;;;;;;;;;;;;27.22;60.67;99654.66;4443062;32;19980;-92
2022/05/02 11:24:06;;;;;;;;;;;;;;;27.14;60.67;99660.75;4444203;32;19974;-93
2022/05/02 11:26:39;;;;;;;;;;;;;;;27.10;60.67;99656.72;4443741;32;19991;-94
2022/05/02 11:29:23;;;;;;;;;;;;;;;27.02;60.67;99658.53;4431125;32;19976;-93
2022/05/02 11:31:54;;;;;;;;;;;;;;;27.03;60.67;99654.84;4457201;32;19996;-93
2022/05/02 11:34:38;;;;;;;;;;;;;;;27.23;60.67;99659.00;4456808;32;19978;-92
2022/05/02 11:37:06;;;;;;;;;;;;;;;27.25;60.67;99651.66;4442847;32;19985;-93
2022/05/02 11:39:37;;;;;;;;;;;;;;;27.15;60.67;99641.06;4429934;32;19984;-93
2022/05/02 11:42:11;;;;;;;;;;;;;;;26.96;60.66;99648.41;4442558;32;20357;-93
2022/05/02 11:44:42;;;;;;;;;;;;;;;27.28;60.68;99651.34;4442688;32;20715;-92
2022/05/02 11:47:11;;;;;;;;;;;;;;;27.31;60.68;99648.34;4429775;32;20337;-93
2022/05/02 11:49:39;;;;;;;;;;;;;;;27.49;60.69;99648.28;4429796;32;19997;-93
2022/05/02 11:52:06;;;;;;;;;;;;;;;27.46;60.69;99637.91;4430040;32;20011;-93
2022/05/02 11:54:35;;;;;;;;;;;;;;;27.44;60.68;99643.37;4429835;32;19985;-92
2022/05/02 11:57:24;;;;;;;;;;;;;;;27.48;60.68;99633.22;4429832;32;20004;-94
2022/05/02 11:59:50;;;;;;;;;;;;;;;27.34;60.69;99633.81;4432870;32;20338;-93
2022/05/02 12:02:30;;;;;;;;;;;;;;;27.50;60.69;99641.94;4442583;32;20020;-93
2022/05/02 12:04:56;;;;;;;;;;;;;;;27.28;60.68;99635.31;4429677;32;20405;-93
2022/05/02 12:07:21;;;;;;;;;;;;;;;27.36;60.68;99630.00;4429612;32;19981;-93
2022/05/02 12:09:47;;;;;;;;;;;;;;;27.45;60.68;99633.56;4429460;32;20399;-93
2022/05/02 12:12:12;;;;;;;;;;;;;;;27.49;60.69;99632.22;4429122;32;20021;-93
2022/05/02 12:14:41;;;;;;;;;;;;;;;27.40;60.68;99630.50;4429548;32;19981;-93
2022/05/02 12:17:09;;;;;;;;;;;;;;;27.36;60.68;99629.16;4429792;32;19977;-93
2022/05/02 12:19:35;;;;;;;;;;;;;;;27.39;60.68;99618.13;4429710;32;19989;-94
2022/05/02 12:22:01;;;;;;;;;;;;;;;27.40;60.68;99614.47;4429460;32;20309;-94
2022/05/02 12:24:27;;;;;;;;;;;;;;;27.26;60.67;99604.37;4429341;32;19973;-94
2022/05/02 12:26:52;;;;;;;;;;;;;;;27.16;60.67;99602.66;4429454;32;20034;-93
2022/05/02 12:29:18;;;;;;;;;;;;;;;27.23;60.67;99596.69;4429782;32;20034;-93
2022/05/02 12:31:43;;;;;;;;;;;;;;;27.10;60.67;99597.94;4429537;32;20001;-92
2022/05/02 12:34:10;;;;;;;;;;;;;;;27.13;60.67;99600.28;4429598;32;19989;-94
2022/05/02 12:36:41;;;;;;;;;;;;;;;27.18;60.68;99592.62;4429661;32;19988;-92
2022/05/02 12:39:14;;;;;;;;;;;;;;;26.87;60.65;99591.44;4442299;32;20047;-93
2022/05/02 12:41:49;;;;;;;;;;;;;;;26.82;60.66;99585.72;4429784;32;19993;-93
2022/05/02 12:44:15;;;;;;;;;;;;;;;26.99;60.66;99584.00;4429391;32;19977;-93
2022/05/02 12:46:44;;;;;;;;;;;;;;;26.97;60.66;99584.13;4442228;32;20596;-94
2022/05/02 12:49:10;;;;;;;;;;;;;;;27.22;60.68;99585.16;4429212;32;19957;-93
2022/05/02 12:51:35;;;;;;;;;;;;;;;27.21;60.68;99573.63;4429514;32;20383;-93
2022/05/02 12:54:13;;;;;;;;;;;;;;;27.23;60.67;99580.66;4429243;32;20367;-93
2022/05/02 13:00:30;;;;;;;;;;;;;;;27.02;60.67;99568.53;4442956;32;19970;-93
2022/05/02 13:02:41;;;;;;;;;;;;;;;27.32;60.68;99569.00;4444955;32;20313;-94
2022/05/02 13:05:07;;;;;;;;;;;;;;;27.56;60.68;99561.06;4428877;32;19981;-94
2022/05/02 13:07:36;;;;;;;;;;;;;;;27.67;60.69;99558.09;4429074;32;20024;-94
2022/05/02 13:10:02;;;;;;;;;;;;;;;28.01;60.71;99547.31;4428983;32;20005;-94
2022/05/02 13:12:27;;;;;;;;;;;;;;;28.11;60.73;99545.31;4429340;32;20015;-93
2022/05/02 13:14:53;;;;;;;;;;;;;;;28.12;60.73;99535.44;4429071;32;19981;-94
2022/05/02 13:17:19;;;;;;;;;;;;;;;28.06;60.72;99544.97;4442014;32;19977;-94
2022/05/02 13:19:44;;;;;;;;;;;;;;;28.08;60.71;99534.94;4429094;32;20369;-94
2022/05/02 13:22:10;;;;;;;;;;;;;;;28.07;60.72;99529.75;4429289;32;19993;-94
2022/05/02 13:24:37;;;;;;;;;;;;;;;28.01;60.71;99535.78;4427843;32;19981;-94
2022/05/02 13:27:14;;;;;;;;;;;;;;;27.71;60.70;99537.25;4429241;32;19992;-95
2022/05/02 13:29:40;;;;;;;;;;;;;;;27.87;60.70;99528.41;4428914;32;20004;-93
2022/05/02 13:32:10;;;;;;;;;;;;;;;27.90;60.71;99520.03;4428926;32;19993;-93